createdAt,value
2023-05-08T00:01:17.519Z,101140.13
2023-05-08T00:03:44.059Z,101151.66
2023-05-08T00:06:10.891Z,101151.94
2023-05-08T00:08:37.456Z,101153.84
2023-05-08T00:11:03.936Z,101150.31
2023-05-08T00:13:30.416Z,101153.84
2023-05-08T00:15:56.929Z,101155.75
2023-05-08T00:18:23.456Z,101156.63
2023-05-08T00:20:49.982Z,101156.56
2023-05-08T00:23:16.396Z,101150.59
2023-05-08T00:25:42.850Z,101157.63
2023-05-08T00:28:09.290Z,101157.63
2023-05-08T00:30:35.780Z,101154.94
2023-05-08T00:33:02.258Z,101152.19
2023-05-08T00:35:28.750Z,101153.00
2023-05-08T00:37:55.235Z,101147.75
2023-05-08T00:40:21.799Z,101154.78
2023-05-08T00:42:48.438Z,101157.31
2023-05-08T00:45:14.946Z,101157.16
2023-05-08T00:47:42.257Z,101158.34
2023-05-08T00:50:10.577Z,101156.88
2023-05-08T00:52:37.661Z,101157.88
2023-05-08T00:55:05.391Z,101162.31
2023-05-08T00:57:35.501Z,101158.72
2023-05-08T01:00:03.937Z,101153.47
2023-05-08T01:02:33.330Z,101152.56
2023-05-08T01:05:00.236Z,101160.47
2023-05-08T01:07:27.949Z,101158.13
2023-05-08T01:09:54.630Z,101160.84
2023-05-08T01:12:30.935Z,101168.81
2023-05-08T01:15:17.382Z,101160.09
2023-05-08T01:18:11.385Z,101166.34
2023-05-08T01:21:18.212Z,101162.78
2023-05-08T01:24:11.353Z,101167.16
2023-05-08T01:27:11.974Z,101165.47
2023-05-08T01:30:06.142Z,101167.38
2023-05-08T01:32:42.967Z,101177.13
2023-05-08T01:35:27.354Z,101173.59
2023-05-08T01:38:32.941Z,101173.50
2023-05-08T01:41:10.650Z,101169.06
2023-05-08T01:44:10.743Z,101167.28
2023-05-08T01:46:37.262Z,101180.47
2023-05-08T01:49:16.812Z,101170.09
2023-05-08T01:51:53.403Z,101177.09
2023-05-08T01:54:26.958Z,101177.09
2023-05-08T01:56:56.063Z,101178.75
2023-05-08T01:59:24.513Z,101184.88
2023-05-08T02:01:54.255Z,101185.75
2023-05-08T02:04:22.900Z,101182.47
2023-05-08T02:06:51.827Z,101188.84
2023-05-08T02:09:21.344Z,101189.78
2023-05-08T02:11:50.647Z,101191.63
2023-05-08T02:14:19.795Z,101193.38
2023-05-08T02:16:48.568Z,101188.97
2023-05-08T02:19:16.487Z,101194.19
2023-05-08T02:21:45.678Z,101197.69
2023-05-08T02:24:14.027Z,101195.06
2023-05-08T02:26:43.967Z,101200.31
2023-05-08T02:29:10.847Z,101197.75
2023-05-08T02:31:39.935Z,101199.72
2023-05-08T02:34:08.405Z,101205.03
2023-05-08T02:36:36.612Z,101206.72
2023-05-08T02:39:05.683Z,101208.41
2023-05-08T02:41:33.949Z,101212.69
2023-05-08T02:44:00.806Z,101211.75
2023-05-08T02:46:43.343Z,101211.88
2023-05-08T02:49:29.715Z,101210.34
2023-05-08T02:52:22.921Z,101212.19
2023-05-08T02:55:04.782Z,101206.88
2023-05-08T02:57:59.196Z,101203.38
2023-05-08T03:00:32.861Z,101202.47
2023-05-08T03:03:12.088Z,101201.69
2023-05-08T03:05:43.241Z,101200.81
2023-05-08T03:08:16.385Z,101203.44
2023-05-08T03:10:45.790Z,101194.78
2023-05-08T03:13:14.893Z,101195.63
2023-05-08T03:15:46.668Z,101191.50
2023-05-08T03:18:20.094Z,101196.91
2023-05-08T03:20:51.094Z,101188.06
2023-05-08T03:23:20.767Z,101197.69
2023-05-08T03:25:47.477Z,101190.50
2023-05-08T03:28:15.251Z,101187.72
2023-05-08T03:30:42.449Z,101194.69
2023-05-08T03:33:11.589Z,101194.88
2023-05-08T03:35:39.746Z,101201.00
2023-05-08T03:38:07.856Z,101189.59
2023-05-08T03:40:38.901Z,101197.50
2023-05-08T03:43:09.874Z,101189.50
2023-05-08T03:45:38.098Z,101187.69
2023-05-08T03:48:06.246Z,101192.00
2023-05-08T03:50:35.403Z,101189.34
2023-05-08T03:53:02.271Z,101183.97
2023-05-08T03:55:30.457Z,101186.63
2023-05-08T03:58:08.384Z,101186.63
2023-05-08T04:00:47.884Z,101192.72
2023-05-08T04:03:20.871Z,101192.00
2023-05-08T04:05:58.145Z,101190.41
2023-05-08T04:08:31.595Z,101191.22
2023-05-08T04:11:09.334Z,101203.56
2023-05-08T04:13:43.697Z,101203.72
2023-05-08T04:16:17.454Z,101201.13
2023-05-08T04:18:49.835Z,101199.28
2023-05-08T04:21:23.140Z,101202.75
2023-05-08T04:23:51.464Z,101201.84
2023-05-08T04:26:18.735Z,101206.13
2023-05-08T04:28:46.787Z,101202.59
2023-05-08T04:31:15.834Z,101200.75
2023-05-08T04:33:44.480Z,101205.06
2023-05-08T04:36:14.486Z,101206.75
2023-05-08T04:38:41.125Z,101205.84
2023-05-08T04:41:08.384Z,101204.06
2023-05-08T04:43:35.916Z,101206.59
2023-05-08T04:46:05.691Z,101210.91
2023-05-08T04:48:33.786Z,101203.84
2023-05-08T04:51:00.987Z,101206.47
2023-05-08T04:53:27.459Z,101202.88
2023-05-08T04:55:53.984Z,101208.09
2023-05-08T04:58:20.425Z,101215.22
2023-05-08T05:00:46.921Z,101210.88
2023-05-08T05:03:13.546Z,101210.91
2023-05-08T05:05:40.059Z,101213.50
2023-05-08T05:08:06.508Z,101216.94
2023-05-08T05:10:32.987Z,101220.34
2023-05-08T05:12:59.530Z,101224.69
2023-05-08T05:15:25.976Z,101225.50
2023-05-08T05:17:52.471Z,101226.38
2023-05-08T05:20:19.021Z,101231.59
2023-05-08T05:22:45.482Z,101233.34
2023-05-08T05:25:12.565Z,101237.69
2023-05-08T05:27:39.385Z,101238.59
2023-05-08T05:30:06.984Z,101239.41
2023-05-08T05:32:33.533Z,101234.16
2023-05-08T05:35:00.074Z,101232.38
2023-05-08T05:37:26.876Z,101241.09
2023-05-08T05:39:53.376Z,101247.25
2023-05-08T05:42:19.942Z,101246.41
2023-05-08T05:44:46.472Z,101252.59
2023-05-08T05:47:12.987Z,101247.38
2023-05-08T05:49:42.844Z,101255.16
2023-05-08T05:52:09.516Z,101253.41
2023-05-08T05:54:36.042Z,101263.06
2023-05-08T05:57:02.458Z,101256.91
2023-05-08T05:59:28.899Z,101260.34
2023-05-08T06:01:55.393Z,101267.38
2023-05-08T06:04:21.867Z,101269.03
2023-05-08T06:06:48.419Z,101271.69
2023-05-08T06:09:15.834Z,101268.19
2023-05-08T06:11:42.376Z,101271.53
2023-05-08T06:14:08.982Z,101282.09
2023-05-08T06:16:35.675Z,101277.69
2023-05-08T06:19:02.204Z,101276.81
2023-05-08T06:21:28.731Z,101275.84
2023-05-08T06:23:55.265Z,101275.66
2023-05-08T06:26:23.535Z,101272.16
2023-05-08T06:28:50.301Z,101267.69
2023-05-08T06:31:16.782Z,101279.00
2023-05-08T06:33:43.342Z,101276.22
2023-05-08T06:36:10.155Z,101284.03
2023-05-08T06:38:36.663Z,101277.75
2023-05-08T06:41:03.152Z,101276.72
2023-05-08T06:43:30.604Z,101274.03
2023-05-08T06:45:57.214Z,101286.41
2023-05-08T06:48:23.767Z,101276.69
2023-05-08T06:50:51.844Z,101278.59
2023-05-08T06:53:18.308Z,101282.19
2023-05-08T06:55:45.320Z,101283.94
2023-05-08T06:58:12.207Z,101287.50
2023-05-08T07:00:38.753Z,101293.56
2023-05-08T07:03:05.234Z,101289.06
2023-05-08T07:05:31.768Z,101296.06
2023-05-08T07:07:58.250Z,101294.34
2023-05-08T07:10:24.704Z,101304.06
2023-05-08T07:12:51.239Z,101301.53
2023-05-08T07:15:26.024Z,101302.41
2023-05-08T07:17:53.456Z,101305.94
2023-05-08T07:20:20.375Z,101311.31
2023-05-08T07:22:46.869Z,101305.22
2023-05-08T07:25:13.622Z,101314.91
2023-05-08T07:27:40.390Z,101311.41
2023-05-08T07:30:07.782Z,101321.03
2023-05-08T07:32:34.412Z,101321.00
2023-05-08T07:35:02.828Z,101324.41
2023-05-08T07:37:29.433Z,101329.63
2023-05-08T07:39:55.865Z,101333.06
2023-05-08T07:42:22.597Z,101330.38
2023-05-08T07:44:54.838Z,101328.56
2023-05-08T07:47:22.460Z,101331.06
2023-05-08T07:49:49.074Z,101336.94
2023-05-08T07:52:15.654Z,101340.13
2023-05-08T07:54:42.127Z,101342.63
2023-05-08T07:57:08.556Z,101346.16
2023-05-08T07:59:35.000Z,101343.53
2023-05-08T08:02:01.684Z,101342.56
2023-05-08T08:04:28.313Z,101333.63
2023-05-08T08:06:55.216Z,101345.00
2023-05-08T08:09:21.699Z,101341.38
2023-05-08T08:11:48.175Z,101338.69
2023-05-08T08:14:14.636Z,101335.09
2023-05-08T08:16:42.426Z,101342.03
2023-05-08T08:19:09.105Z,101341.81
2023-05-08T08:21:35.589Z,101346.91
2023-05-08T08:24:02.021Z,101354.78
2023-05-08T08:26:28.433Z,101347.50
2023-05-08T08:28:54.875Z,101348.19
2023-05-08T08:31:21.338Z,101344.53
2023-05-08T08:33:47.836Z,101349.59
2023-05-08T08:36:14.988Z,101331.09
2023-05-08T08:38:42.291Z,101335.22
2023-05-08T08:41:08.862Z,101333.22
2023-05-08T08:43:35.430Z,101342.69
2023-05-08T08:46:12.096Z,101344.47
2023-05-08T08:48:46.674Z,101342.56
2023-05-08T08:51:25.690Z,101343.66
2023-05-08T08:54:09.586Z,101339.25
2023-05-08T08:56:40.727Z,101340.84
2023-05-08T08:59:08.809Z,101341.66
2023-05-08T09:01:38.595Z,101335.50
2023-05-08T09:04:05.737Z,101339.97
2023-05-08T09:06:36.641Z,101342.50
2023-05-08T09:09:03.802Z,101345.84
2023-05-08T09:11:30.622Z,101348.47
2023-05-08T09:13:57.819Z,101350.91
2023-05-08T09:16:25.012Z,101344.66
2023-05-08T09:18:51.798Z,101351.63
2023-05-08T09:21:18.286Z,101357.59
2023-05-08T09:23:57.804Z,101350.53
2023-05-08T09:26:35.073Z,101355.63
2023-05-08T09:29:18.263Z,101354.69
2023-05-08T09:31:46.939Z,101356.38
2023-05-08T09:34:28.400Z,101350.91
2023-05-08T09:36:56.011Z,101353.66
2023-05-08T09:39:25.205Z,101349.09
2023-05-08T09:42:03.432Z,101357.06
2023-05-08T09:44:47.887Z,101356.13
2023-05-08T09:47:16.556Z,101355.25
2023-05-08T09:50:02.751Z,101349.72
2023-05-08T09:52:31.241Z,101366.41
2023-05-08T09:55:07.623Z,101352.16
2023-05-08T09:57:39.908Z,101357.44
2023-05-08T10:00:10.696Z,101359.16
2023-05-08T10:02:39.457Z,101348.44
2023-05-08T10:05:22.989Z,101349.19
2023-05-08T10:07:49.526Z,101348.00
2023-05-08T10:10:23.209Z,101348.69
2023-05-08T10:12:49.809Z,101342.19
2023-05-08T10:15:16.412Z,101343.72
2023-05-08T10:17:59.681Z,101350.25
2023-05-08T10:20:30.108Z,101339.25
2023-05-08T10:22:57.982Z,101344.22
2023-05-08T10:25:25.878Z,101344.78
2023-05-08T10:28:06.562Z,101338.28
2023-05-08T10:30:36.820Z,101328.28
2023-05-08T10:33:07.827Z,101333.53
2023-05-08T10:35:34.415Z,101336.25
2023-05-08T10:38:02.330Z,101328.28
2023-05-08T10:40:28.744Z,101320.09
2023-05-08T10:42:56.453Z,101320.91
2023-05-08T10:45:24.433Z,101326.22
2023-05-08T10:48:22.163Z,101320.09
2023-05-08T10:51:27.264Z,101326.16
2023-05-08T10:54:18.812Z,101321.72
2023-05-08T10:56:45.286Z,101325.16
2023-05-08T10:59:23.672Z,101328.50
2023-05-08T11:01:50.557Z,101333.03
2023-05-08T11:04:23.859Z,101321.22
2023-05-08T11:06:53.100Z,101331.22
2023-05-08T11:09:28.188Z,101317.50
2023-05-08T11:12:08.706Z,101308.41
2023-05-08T11:14:38.117Z,101312.19
2023-05-08T11:17:05.065Z,101304.31
2023-05-08T11:19:31.664Z,101306.19
2023-05-08T11:22:13.327Z,101307.28
2023-05-08T11:24:52.286Z,101311.72
2023-05-08T11:27:18.802Z,101304.78
2023-05-08T11:29:45.295Z,101301.25
2023-05-08T11:32:12.064Z,101301.13
2023-05-08T11:34:46.102Z,101313.50
2023-05-08T11:37:22.520Z,101304.47
2023-05-08T11:39:49.036Z,101299.94
2023-05-08T11:42:24.529Z,101297.06
2023-05-08T11:45:14.185Z,101296.00
2023-05-08T11:47:44.807Z,101298.16
2023-05-08T11:50:13.233Z,101292.06
2023-05-08T11:52:41.661Z,101298.25
2023-05-08T11:55:11.238Z,101298.09
2023-05-08T11:57:38.375Z,101308.91
2023-05-08T12:00:07.060Z,101297.19
2023-05-08T12:02:39.672Z,101302.31
2023-05-08T12:05:10.873Z,101291.06
2023-05-08T12:07:46.199Z,101293.16
2023-05-08T12:10:13.766Z,101304.69
2023-05-08T12:12:42.314Z,101295.59
2023-05-08T12:15:10.476Z,101298.16
2023-05-08T12:17:37.916Z,101294.28
2023-05-08T12:20:12.635Z,101292.78
2023-05-08T12:22:43.366Z,101293.97
2023-05-08T12:25:12.084Z,101300.56
2023-05-08T12:27:39.164Z,101295.88
2023-05-08T12:30:08.264Z,101299.13
2023-05-08T12:32:37.006Z,101297.47
2023-05-08T12:35:03.973Z,101300.44
2023-05-08T12:37:30.548Z,101295.41
2023-05-08T12:39:57.053Z,101309.59
2023-05-08T12:42:41.618Z,101292.25
2023-05-08T12:45:08.808Z,101290.47
2023-05-08T12:47:35.356Z,101287.94
2023-05-08T12:50:01.844Z,101276.47
2023-05-08T12:52:28.803Z,101284.50
2023-05-08T12:54:55.370Z,101281.97
2023-05-08T12:57:22.749Z,101284.63
2023-05-08T12:59:49.305Z,101276.66
2023-05-08T13:02:26.458Z,101279.19
2023-05-08T13:04:56.561Z,101273.22
2023-05-08T13:07:23.258Z,101277.66
2023-05-08T13:09:57.484Z,101273.16
2023-05-08T13:12:23.897Z,101273.22
2023-05-08T13:14:50.661Z,101270.31
2023-05-08T13:17:18.492Z,101259.88
2023-05-08T13:19:44.885Z,101263.41
2023-05-08T13:22:11.311Z,101260.03
2023-05-08T13:24:37.906Z,101257.56
2023-05-08T13:27:04.362Z,101260.03
2023-05-08T13:29:30.988Z,101260.03
2023-05-08T13:31:57.407Z,101255.72
2023-05-08T13:34:25.387Z,101257.56
2023-05-08T13:36:52.079Z,101251.38
2023-05-08T13:39:18.633Z,101251.47
2023-05-08T13:41:45.710Z,101256.97
2023-05-08T13:44:12.145Z,101250.06
2023-05-08T13:46:38.591Z,101251.06
2023-05-08T13:49:05.020Z,101248.19
2023-05-08T13:51:31.533Z,101235.47
2023-05-08T13:53:57.938Z,101236.09
2023-05-08T13:56:24.449Z,101239.81
2023-05-08T13:58:52.443Z,101230.16
2023-05-08T14:01:26.609Z,101237.41
2023-05-08T14:03:54.856Z,101232.97
2023-05-08T14:06:21.754Z,101237.34
2023-05-08T14:08:50.592Z,101234.53
2023-05-08T14:11:18.717Z,101236.72
2023-05-08T14:13:45.171Z,101227.06
2023-05-08T14:16:12.954Z,101229.63
2023-05-08T14:18:40.237Z,101227.72
2023-05-08T14:21:06.856Z,101227.41
2023-05-08T14:23:35.077Z,101224.69
2023-05-08T14:26:01.549Z,101233.56
2023-05-08T14:28:27.977Z,101231.00
2023-05-08T14:30:54.430Z,101234.97
2023-05-08T14:33:20.878Z,101240.66
2023-05-08T14:35:48.290Z,101235.19
2023-05-08T14:38:15.079Z,101244.25
2023-05-08T14:40:41.485Z,101239.88
2023-05-08T14:43:07.967Z,101242.44
2023-05-08T14:45:34.633Z,101240.34
2023-05-08T14:48:01.612Z,101241.94
2023-05-08T14:50:28.141Z,101249.97
2023-05-08T14:52:54.896Z,101245.53
2023-05-08T14:55:22.178Z,101244.41
2023-05-08T14:57:49.727Z,101242.38
2023-05-08T15:00:17.598Z,101241.72
2023-05-08T15:02:44.609Z,101240.97
2023-05-08T15:05:19.172Z,101227.91
2023-05-08T15:07:47.197Z,101235.41
2023-05-08T15:10:13.995Z,101236.53
2023-05-08T15:12:40.946Z,101242.13
2023-05-08T15:15:07.906Z,101248.34
2023-05-08T15:17:37.259Z,101252.66
2023-05-08T15:20:04.499Z,101247.44
2023-05-08T15:22:31.294Z,101239.66
2023-05-08T15:25:02.352Z,101243.47
2023-05-08T15:27:29.582Z,101232.25
2023-05-08T15:29:56.068Z,101238.50
2023-05-08T15:32:22.534Z,101240.50
2023-05-08T15:34:49.070Z,101241.84
2023-05-08T15:37:15.772Z,101247.88
2023-05-08T15:39:43.239Z,101232.63
2023-05-08T15:42:09.828Z,101225.50
2023-05-08T15:47:05.703Z,101228.69
2023-05-08T15:49:32.120Z,101219.94
2023-05-08T15:51:58.536Z,101215.47
2023-05-08T15:54:24.959Z,101214.88
2023-05-08T15:56:51.396Z,101217.47
2023-05-08T15:59:17.894Z,101205.41
2023-05-08T16:01:44.453Z,101209.00
2023-05-08T16:04:10.901Z,101216.09
2023-05-08T16:06:37.340Z,101211.22
2023-05-08T16:09:03.875Z,101212.44
2023-05-08T16:11:33.658Z,101208.91
2023-05-08T16:14:01.939Z,101203.41
2023-05-08T16:16:28.626Z,101198.25
2023-05-08T16:18:55.210Z,101199.31
2023-05-08T16:21:22.672Z,101198.38
2023-05-08T16:23:49.228Z,101194.34
2023-05-08T16:26:16.563Z,101193.31
2023-05-08T16:28:43.118Z,101186.63
2023-05-08T16:31:11.630Z,101182.16
2023-05-08T16:33:38.139Z,101185.59
2023-05-08T16:36:05.179Z,101182.59
2023-05-08T16:38:31.652Z,101175.00
2023-05-08T16:41:05.544Z,101170.25
2023-05-08T16:43:32.737Z,101175.84
2023-05-08T16:45:59.403Z,101178.78
2023-05-08T16:48:26.730Z,101172.84
2023-05-08T16:50:53.300Z,101168.16
2023-05-08T16:53:19.723Z,101162.22
2023-05-08T16:55:46.361Z,101162.22
2023-05-08T16:58:12.777Z,101156.31
2023-05-08T17:00:39.439Z,101161.38
2023-05-08T17:03:05.964Z,101166.94
2023-05-08T17:05:33.421Z,101163.59
2023-05-08T17:08:00.020Z,101167.22
2023-05-08T17:10:26.728Z,101165.66
2023-05-08T17:12:54.295Z,101163.94
2023-05-08T17:15:20.845Z,101170.69
2023-05-08T17:17:49.420Z,101162.75
2023-05-08T17:20:16.412Z,101170.97
2023-05-08T17:22:42.899Z,101172.59
2023-05-08T17:25:09.442Z,101167.22
2023-05-08T17:27:36.905Z,101171.81
2023-05-08T17:30:04.114Z,101162.06
2023-05-08T17:32:30.753Z,101166.59
2023-05-08T17:34:57.205Z,101166.69
2023-05-08T17:37:23.674Z,101158.31
2023-05-08T17:39:50.241Z,101164.66
2023-05-08T17:42:16.694Z,101168.25
2023-05-08T17:44:43.182Z,101168.66
2023-05-08T17:47:09.617Z,101171.16
2023-05-08T17:49:36.101Z,101169.63
2023-05-08T17:52:04.393Z,101170.56
2023-05-08T17:54:30.845Z,101169.09
2023-05-08T17:56:57.297Z,101165.66
2023-05-08T17:59:23.907Z,101173.63
2023-05-08T18:01:50.495Z,101180.00
2023-05-08T18:04:16.984Z,101171.38
2023-05-08T18:06:43.592Z,101169.50
2023-05-08T18:09:10.104Z,101167.94
2023-05-08T18:11:36.596Z,101173.25
2023-05-08T18:14:03.115Z,101181.13
2023-05-08T18:16:29.765Z,101184.91
2023-05-08T18:18:56.369Z,101184.09
2023-05-08T18:21:23.073Z,101179.78
2023-05-08T18:23:49.614Z,101180.50
2023-05-08T18:26:16.948Z,101176.22
2023-05-08T18:28:43.770Z,101173.81
2023-05-08T18:31:10.950Z,101173.16
2023-05-08T18:33:37.442Z,101161.63
2023-05-08T18:36:07.124Z,101174.28
2023-05-08T18:38:34.367Z,101175.22
2023-05-08T18:41:05.098Z,101177.84
2023-05-08T18:43:31.613Z,101172.78
2023-05-08T18:46:00.242Z,101170.47
2023-05-08T18:48:27.252Z,101170.69
2023-05-08T18:50:55.846Z,101164.38
2023-05-08T18:53:22.350Z,101159.00
2023-05-08T18:55:48.826Z,101161.72
2023-05-08T18:58:15.239Z,101162.97
2023-05-08T19:00:41.849Z,101156.81
2023-05-08T19:03:08.423Z,101158.69
2023-05-08T19:05:35.221Z,101163.47
2023-05-08T19:08:01.625Z,101165.31
2023-05-08T19:10:28.220Z,101158.16
2023-05-08T19:12:54.746Z,101168.00
2023-05-08T19:15:21.289Z,101170.00
2023-05-08T19:17:47.737Z,101168.44
2023-05-08T19:20:14.789Z,101172.00
2023-05-08T19:22:41.662Z,101162.72
2023-05-08T19:25:08.415Z,101168.25
2023-05-08T19:27:34.907Z,101163.94
2023-05-08T19:30:01.417Z,101163.03
2023-05-08T19:32:28.633Z,101152.25
2023-05-08T19:34:57.304Z,101163.81
2023-05-08T19:37:25.041Z,101156.78
2023-05-08T19:39:51.554Z,101147.13
2023-05-08T19:42:18.079Z,101152.50
2023-05-08T19:44:44.522Z,101149.91
2023-05-08T19:47:11.101Z,101151.81
2023-05-08T19:49:37.567Z,101161.97
2023-05-08T19:52:04.218Z,101167.53
2023-05-08T19:54:30.865Z,101166.03
2023-05-08T19:56:57.655Z,101161.59
2023-05-08T19:59:24.199Z,101168.53
2023-05-08T20:01:50.841Z,101167.59
2023-05-08T20:04:17.441Z,101160.88
2023-05-08T20:06:43.893Z,101158.34
2023-05-08T20:09:10.514Z,101164.59
2023-05-08T20:11:37.032Z,101160.38
2023-05-08T20:14:03.608Z,101163.06
2023-05-08T20:16:30.143Z,101158.72
2023-05-08T20:18:56.646Z,101156.09
2023-05-08T20:21:23.148Z,101160.53
2023-05-08T20:23:49.590Z,101155.22
2023-05-08T20:26:16.063Z,101153.44
2023-05-08T20:28:42.502Z,101151.91
2023-05-08T20:31:09.084Z,101159.94
2023-05-08T20:33:35.545Z,101158.16
2023-05-08T20:36:02.184Z,101161.84
2023-05-08T20:38:28.772Z,101161.72
2023-05-08T20:40:59.295Z,101157.47
2023-05-08T20:43:27.512Z,101162.09
2023-05-08T20:45:54.172Z,101167.44
2023-05-08T20:48:20.738Z,101158.66
2023-05-08T20:50:50.160Z,101148.94
2023-05-08T20:53:16.601Z,101143.59
2023-05-08T20:55:43.100Z,101143.66
2023-05-08T20:58:09.565Z,101142.84
2023-05-08T21:00:36.198Z,101140.34
2023-05-08T21:03:03.166Z,101142.19
2023-05-08T21:05:29.750Z,101140.53
2023-05-08T21:07:59.919Z,101137.84
2023-05-08T21:10:28.652Z,101139.63
2023-05-08T21:12:55.261Z,101131.78
2023-05-08T21:15:21.778Z,101137.19
2023-05-08T21:17:48.399Z,101122.38
2023-05-08T21:20:15.212Z,101115.34
2023-05-08T21:22:41.908Z,101119.72
2023-05-08T21:25:09.795Z,101119.81
2023-05-08T21:27:36.260Z,101129.72
2023-05-08T21:30:02.914Z,101120.03
2023-05-08T21:32:29.409Z,101119.22
2023-05-08T21:34:56.199Z,101127.16
2023-05-08T21:37:23.538Z,101124.63
2023-05-08T21:39:50.014Z,101123.00
2023-05-08T21:42:16.507Z,101126.56
2023-05-08T21:44:43.213Z,101128.41
2023-05-08T21:47:09.633Z,101116.13
2023-05-08T21:49:36.111Z,101114.47
2023-05-08T21:52:02.617Z,101112.69
2023-05-08T21:54:29.094Z,101108.25
2023-05-08T21:56:55.615Z,101101.38
2023-05-08T21:59:22.050Z,101107.59
2023-05-08T22:01:48.553Z,101104.09
2023-05-08T22:04:15.026Z,101098.09
2023-05-08T22:06:43.181Z,101102.56
2023-05-08T22:09:09.707Z,101106.25
2023-05-08T22:11:36.252Z,101102.63
2023-05-08T22:14:02.774Z,101098.22
2023-05-08T22:16:29.255Z,101098.34
2023-05-08T22:18:55.906Z,101096.63
2023-05-08T22:21:22.360Z,101091.41
2023-05-08T22:23:48.801Z,101088.84
2023-05-08T22:26:15.328Z,101086.19
2023-05-08T22:28:41.736Z,101079.19
2023-05-08T22:31:08.199Z,101071.31
2023-05-08T22:33:34.762Z,101076.53
2023-05-08T22:36:01.242Z,101066.09
2023-05-08T22:38:27.730Z,101077.53
2023-05-08T22:40:56.436Z,101068.81
2023-05-08T22:43:23.978Z,101069.75
2023-05-08T22:45:50.482Z,101071.66
2023-05-08T22:48:16.955Z,101075.09
2023-05-08T22:50:43.970Z,101066.25
2023-05-08T22:53:10.738Z,101070.72
2023-05-08T22:55:37.877Z,101063.72
2023-05-08T22:58:04.536Z,101064.47
2023-05-08T23:00:31.076Z,101061.88
2023-05-08T23:02:57.522Z,101067.09
2023-05-08T23:05:23.998Z,101065.44
2023-05-08T23:07:50.641Z,101054.88
2023-05-08T23:10:17.137Z,101055.75
2023-05-08T23:12:43.603Z,101049.53
2023-05-08T23:15:10.696Z,101041.63
2023-05-08T23:17:37.156Z,101042.41
2023-05-08T23:20:04.932Z,101041.63
2023-05-08T23:22:31.588Z,101035.47
2023-05-08T23:24:58.045Z,101032.88
2023-05-08T23:27:25.667Z,101022.47
2023-05-08T23:29:52.178Z,101020.69
2023-05-08T23:32:18.652Z,101013.69
2023-05-08T23:34:45.194Z,101011.97
2023-05-08T23:37:11.619Z,101004.97
2023-05-08T23:39:41.165Z,101007.56
2023-05-08T23:42:08.200Z,101001.47
2023-05-08T23:44:34.844Z,101005.97
2023-05-08T23:47:01.531Z,101006.09
2023-05-08T23:49:28.009Z,100997.38
2023-05-08T23:51:54.417Z,100995.66
2023-05-08T23:54:21.034Z,100994.03
2023-05-08T23:56:47.674Z,100993.97
2023-05-08T23:59:14.081Z,101001.09
